createdAt,value
2023-03-05T00:00:40.392Z,8.57
2023-03-05T00:03:06.769Z,8.55
2023-03-05T00:05:33.180Z,8.35
2023-03-05T00:07:59.588Z,8.06
2023-03-05T00:10:25.974Z,8.15
2023-03-05T00:12:52.406Z,8.08
2023-03-05T00:15:18.830Z,7.96
2023-03-05T00:17:45.226Z,8.31
2023-03-05T00:20:11.774Z,8.28
2023-03-05T00:22:38.165Z,8.25
2023-03-05T00:25:04.606Z,8.35
2023-03-05T00:27:31.078Z,8.33
2023-03-05T00:29:57.499Z,8.37
2023-03-05T00:32:23.941Z,8.36
2023-03-05T00:34:50.456Z,8.41
2023-03-05T00:37:16.940Z,8.39
2023-03-05T00:39:43.331Z,8.28
2023-03-05T00:42:09.708Z,8.27
2023-03-05T00:44:36.076Z,8.24
2023-03-05T00:47:02.631Z,8.25
2023-03-05T00:49:29.067Z,8.25
2023-03-05T00:51:55.583Z,8.24
2023-03-05T00:54:22.007Z,8.23
2023-03-05T00:56:48.432Z,8.23
2023-03-05T00:59:14.845Z,8.15
2023-03-05T01:01:41.332Z,8.07
2023-03-05T01:04:07.752Z,8.07
2023-03-05T01:06:34.184Z,8.10
2023-03-05T01:09:00.580Z,8.03
2023-03-05T01:11:27.026Z,7.87
2023-03-05T01:13:53.450Z,7.78
2023-03-05T01:16:19.912Z,7.79
2023-03-05T01:18:46.389Z,7.79
2023-03-05T01:21:12.768Z,7.67
2023-03-05T01:23:39.229Z,7.41
2023-03-05T01:26:05.950Z,7.35
2023-03-05T01:28:32.451Z,7.57
2023-03-05T01:30:58.982Z,7.73
2023-03-05T01:33:25.410Z,7.83
2023-03-05T01:35:51.905Z,7.32
2023-03-05T01:38:18.294Z,7.44
2023-03-05T01:40:44.657Z,7.27
2023-03-05T01:43:11.058Z,7.35
2023-03-05T01:45:37.539Z,6.87
2023-03-05T01:48:04.081Z,6.67
2023-03-05T01:50:30.460Z,6.47
2023-03-05T01:52:56.879Z,6.22
2023-03-05T01:55:23.287Z,6.28
2023-03-05T01:57:49.691Z,6.09
2023-03-05T02:00:16.090Z,5.99
2023-03-05T02:02:42.503Z,6.13
2023-03-05T02:05:08.898Z,6.17
2023-03-05T02:07:35.322Z,6.25
2023-03-05T02:10:01.835Z,6.05
2023-03-05T02:12:28.263Z,5.91
2023-03-05T02:14:54.645Z,5.99
2023-03-05T02:17:21.029Z,5.99
2023-03-05T02:19:47.438Z,5.86
2023-03-05T02:22:13.981Z,5.73
2023-03-05T02:24:40.414Z,5.85
2023-03-05T02:27:06.845Z,6.05
2023-03-05T02:29:33.232Z,6.14
2023-03-05T02:31:59.795Z,6.20
2023-03-05T02:34:26.237Z,5.85
2023-03-05T02:36:52.621Z,5.77
2023-03-05T02:39:19.032Z,6.05
2023-03-05T02:41:45.454Z,5.57
2023-03-05T02:44:11.848Z,5.48
2023-03-05T02:46:38.215Z,5.35
2023-03-05T02:49:04.646Z,5.36
2023-03-05T02:51:31.375Z,5.89
2023-03-05T02:53:57.832Z,6.12
2023-03-05T02:56:24.256Z,6.22
2023-03-05T02:58:50.657Z,6.24
2023-03-05T03:01:17.088Z,6.54
2023-03-05T03:03:43.597Z,6.39
2023-03-05T03:06:10.065Z,6.12
2023-03-05T03:08:36.570Z,6.60
2023-03-05T03:11:02.931Z,6.75
2023-03-05T03:13:29.341Z,6.76
2023-03-05T03:15:55.705Z,6.74
2023-03-05T03:18:22.116Z,6.73
2023-03-05T03:20:48.549Z,6.74
2023-03-05T03:23:14.982Z,6.62
2023-03-05T03:25:41.415Z,6.71
2023-03-05T03:28:07.814Z,6.74
2023-03-05T03:30:34.458Z,6.78
2023-03-05T03:33:00.970Z,6.85
2023-03-05T03:35:27.413Z,6.82
2023-03-05T03:37:53.902Z,6.82
2023-03-05T03:40:20.330Z,6.77
2023-03-05T03:42:46.722Z,6.76
2023-03-05T03:45:13.109Z,6.81
2023-03-05T03:47:39.558Z,6.87
2023-03-05T03:50:06.064Z,6.79
2023-03-05T03:52:32.476Z,6.56
2023-03-05T03:54:58.921Z,6.62
2023-03-05T03:57:25.330Z,6.58
2023-03-05T03:59:51.761Z,6.51
2023-03-05T04:02:18.202Z,6.58
2023-03-05T04:04:44.720Z,6.48
2023-03-05T04:07:11.185Z,6.41
2023-03-05T04:09:37.603Z,6.47
2023-03-05T04:12:04.038Z,6.49
2023-03-05T04:14:30.431Z,6.45
2023-03-05T04:16:56.810Z,6.41
2023-03-05T04:19:23.232Z,6.45
2023-03-05T04:21:49.689Z,6.43
2023-03-05T04:24:16.359Z,6.37
2023-03-05T04:26:42.748Z,6.41
2023-03-05T04:29:09.174Z,6.39
2023-03-05T04:31:35.670Z,6.28
2023-03-05T04:34:02.132Z,6.26
2023-03-05T04:36:28.747Z,6.39
2023-03-05T04:38:55.255Z,6.33
2023-03-05T04:41:21.672Z,6.34
2023-03-05T04:43:48.046Z,6.40
2023-03-05T04:46:14.500Z,6.10
2023-03-05T04:48:40.911Z,6.06
2023-03-05T04:51:07.357Z,6.25
2023-03-05T04:53:33.778Z,6.25
2023-03-05T04:56:00.145Z,6.19
2023-03-05T04:58:26.608Z,6.11
2023-03-05T05:00:53.018Z,6.06
2023-03-05T05:03:19.412Z,6.17
2023-03-05T05:05:45.833Z,6.08
2023-03-05T05:08:12.206Z,6.09
2023-03-05T05:10:38.620Z,6.12
2023-03-05T05:13:05.181Z,6.09
2023-03-05T05:15:31.645Z,6.03
2023-03-05T05:17:58.056Z,6.01
2023-03-05T05:20:24.446Z,6.09
2023-03-05T05:22:50.855Z,5.98
2023-03-05T05:25:17.266Z,6.00
2023-03-05T05:27:43.776Z,5.96
2023-03-05T05:30:10.206Z,5.99
2023-03-05T05:32:36.772Z,5.95
2023-03-05T05:35:03.299Z,5.89
2023-03-05T05:37:29.696Z,5.84
2023-03-05T05:39:56.137Z,5.90
2023-03-05T05:42:22.537Z,5.84
2023-03-05T05:44:49.100Z,5.96
2023-03-05T05:47:15.664Z,5.99
2023-03-05T05:49:42.078Z,6.00
2023-03-05T05:52:08.496Z,5.97
2023-03-05T05:54:34.901Z,5.92
2023-03-05T05:57:01.329Z,5.94
2023-03-05T05:59:27.689Z,5.88
2023-03-05T06:01:54.127Z,5.84
2023-03-05T06:04:20.514Z,5.82
2023-03-05T06:06:46.912Z,5.74
2023-03-05T06:09:13.324Z,5.74
2023-03-05T06:11:39.730Z,5.85
2023-03-05T06:14:06.176Z,5.89
2023-03-05T06:16:32.668Z,5.86
2023-03-05T06:18:59.095Z,5.82
2023-03-05T06:21:25.496Z,5.80
2023-03-05T06:23:51.929Z,5.58
2023-03-05T06:26:18.551Z,5.77
2023-03-05T06:28:44.945Z,5.82
2023-03-05T06:31:11.433Z,5.78
2023-03-05T06:33:37.856Z,5.80
2023-03-05T06:36:04.258Z,5.84
2023-03-05T06:38:30.670Z,5.88
2023-03-05T06:40:57.057Z,5.73
2023-03-05T06:43:23.451Z,5.67
2023-03-05T06:45:51.166Z,5.84
2023-03-05T06:48:17.574Z,5.67
2023-03-05T06:50:43.991Z,5.76
2023-03-05T06:53:10.401Z,5.83
2023-03-05T06:55:36.878Z,5.77
2023-03-05T06:58:03.272Z,5.88
2023-03-05T07:00:29.807Z,5.91
2023-03-05T07:02:56.291Z,5.86
2023-03-05T07:05:22.716Z,5.86
2023-03-05T07:07:49.248Z,5.82
2023-03-05T07:10:15.696Z,5.71
2023-03-05T07:12:43.520Z,5.76
2023-03-05T07:15:10.010Z,5.75
2023-03-05T07:17:36.464Z,5.79
2023-03-05T07:20:02.897Z,5.85
2023-03-05T07:22:29.295Z,5.82
2023-03-05T07:24:55.690Z,5.73
2023-03-05T07:27:22.188Z,5.89
2023-03-05T07:29:49.039Z,5.94
2023-03-05T07:32:15.640Z,6.15
2023-03-05T07:34:42.046Z,6.09
2023-03-05T07:37:08.449Z,6.20
2023-03-05T07:39:34.891Z,6.18
2023-03-05T07:42:01.370Z,6.23
2023-03-05T07:44:27.939Z,6.28
2023-03-05T07:46:54.468Z,6.31
2023-03-05T07:49:20.871Z,6.22
2023-03-05T07:51:47.323Z,6.22
2023-03-05T07:54:13.759Z,6.11
2023-03-05T07:56:40.226Z,6.20
2023-03-05T07:59:06.746Z,6.14
2023-03-05T08:01:33.226Z,6.32
2023-03-05T08:03:59.702Z,6.39
2023-03-05T08:06:26.215Z,6.26
2023-03-05T08:08:52.694Z,6.16
2023-03-05T08:11:19.081Z,6.32
2023-03-05T08:13:45.505Z,6.11
2023-03-05T08:16:11.987Z,6.29
2023-03-05T08:18:38.378Z,6.37
2023-03-05T08:21:05.023Z,6.35
2023-03-05T08:23:31.445Z,6.33
2023-03-05T08:25:57.913Z,6.22
2023-03-05T08:28:24.339Z,6.39
2023-03-05T08:30:50.783Z,6.43
2023-03-05T08:33:17.238Z,6.42
2023-03-05T08:35:43.744Z,6.61
2023-03-05T08:38:10.143Z,6.59
2023-03-05T08:40:36.526Z,6.72
2023-03-05T08:43:02.920Z,6.39
2023-03-05T08:45:29.518Z,6.35
2023-03-05T08:47:55.999Z,6.50
2023-03-05T08:50:22.433Z,6.65
2023-03-05T08:52:48.912Z,6.81
2023-03-05T08:55:15.468Z,6.85
2023-03-05T08:57:41.875Z,6.89
2023-03-05T09:00:08.293Z,6.96
2023-03-05T09:02:34.883Z,6.93
2023-03-05T09:05:01.308Z,6.77
2023-03-05T09:07:27.752Z,6.67
2023-03-05T09:09:54.149Z,6.96
2023-03-05T09:12:20.635Z,7.13
2023-03-05T09:14:47.066Z,7.13
2023-03-05T09:17:13.450Z,7.34
2023-03-05T09:19:39.881Z,7.53
2023-03-05T09:22:06.353Z,7.73
2023-03-05T09:24:32.882Z,7.84
2023-03-05T09:26:59.291Z,7.80
2023-03-05T09:29:25.754Z,7.73
2023-03-05T09:31:52.207Z,7.72
2023-03-05T09:34:18.933Z,7.57
2023-03-05T09:36:45.370Z,7.63
2023-03-05T09:39:11.754Z,7.65
2023-03-05T09:41:38.383Z,7.63
2023-03-05T09:44:07.728Z,7.83
2023-03-05T09:46:34.146Z,7.85
2023-03-05T09:49:00.537Z,8.04
2023-03-05T09:51:27.163Z,8.07
2023-03-05T09:53:53.737Z,8.08
2023-03-05T09:56:20.282Z,8.07
2023-03-05T09:58:46.692Z,8.00
2023-03-05T10:01:13.075Z,8.22
2023-03-05T10:03:39.656Z,8.29
2023-03-05T10:06:06.387Z,8.31
2023-03-05T10:08:32.881Z,8.27
2023-03-05T10:10:59.374Z,8.11
2023-03-05T10:13:25.905Z,8.14
2023-03-05T10:15:52.346Z,8.30
2023-03-05T10:18:18.974Z,8.37
2023-03-05T10:20:45.422Z,8.51
2023-03-05T10:23:11.866Z,8.50
2023-03-05T10:25:38.525Z,8.53
2023-03-05T10:28:04.911Z,8.49
2023-03-05T10:30:31.323Z,8.55
2023-03-05T10:32:57.953Z,8.54
2023-03-05T10:35:24.669Z,8.50
2023-03-05T10:37:51.850Z,8.71
2023-03-05T10:40:18.414Z,8.83
2023-03-05T10:42:44.810Z,8.64
2023-03-05T10:45:13.217Z,8.51
2023-03-05T10:47:40.323Z,8.68
2023-03-05T10:50:06.762Z,8.80
2023-03-05T10:52:33.526Z,8.85
2023-03-05T10:55:00.022Z,8.93
2023-03-05T10:57:26.534Z,8.89
2023-03-05T10:59:53.018Z,8.89
2023-03-05T11:02:19.438Z,9.01
2023-03-05T11:04:46.062Z,8.96
2023-03-05T11:07:12.463Z,9.09
2023-03-05T11:09:39.048Z,8.89
2023-03-05T11:12:05.624Z,9.06
2023-03-05T11:14:32.229Z,9.10
2023-03-05T11:16:58.633Z,9.10
2023-03-05T11:19:25.096Z,8.86
2023-03-05T11:21:51.808Z,8.63
2023-03-05T11:24:18.314Z,8.61
2023-03-05T11:26:44.860Z,8.99
2023-03-05T11:29:11.296Z,9.20
2023-03-05T11:31:37.732Z,9.11
2023-03-05T11:34:05.920Z,9.09
2023-03-05T11:36:32.441Z,9.32
2023-03-05T11:39:01.052Z,9.27
2023-03-05T11:41:27.446Z,9.42
2023-03-05T11:43:53.898Z,9.23
2023-03-05T11:46:20.551Z,9.46
2023-03-05T11:48:47.050Z,9.59
2023-03-05T11:51:13.444Z,9.59
2023-03-05T11:53:39.891Z,9.65
2023-03-05T11:56:06.403Z,9.71
2023-03-05T11:58:32.894Z,9.51
2023-03-05T12:00:59.496Z,9.44
2023-03-05T12:03:25.927Z,9.23
2023-03-05T12:05:52.351Z,9.51
2023-03-05T12:08:18.766Z,9.69
2023-03-05T12:10:45.372Z,9.81
2023-03-05T12:13:11.773Z,10.00
2023-03-05T12:15:38.295Z,9.75
2023-03-05T12:18:04.729Z,10.12
2023-03-05T12:20:31.320Z,9.70
2023-03-05T12:22:57.776Z,9.96
2023-03-05T12:25:24.233Z,9.75
2023-03-05T12:27:50.600Z,9.78
2023-03-05T12:30:16.991Z,10.02
2023-03-05T12:32:43.540Z,10.09
2023-03-05T12:35:10.054Z,9.66
2023-03-05T12:37:36.460Z,9.72
2023-03-05T12:40:02.833Z,9.73
2023-03-05T12:42:29.235Z,9.85
2023-03-05T12:44:55.617Z,9.88
2023-03-05T12:47:22.064Z,9.97
2023-03-05T12:49:48.496Z,10.13
2023-03-05T12:52:15.837Z,10.29
2023-03-05T12:54:42.266Z,10.37
2023-03-05T12:57:08.690Z,10.52
2023-03-05T12:59:35.090Z,10.64
2023-03-05T13:02:01.714Z,10.58
2023-03-05T13:04:28.452Z,10.59
2023-03-05T13:06:54.900Z,10.63
2023-03-05T13:09:21.391Z,10.58
2023-03-05T13:11:47.906Z,10.52
2023-03-05T13:14:14.589Z,10.57
2023-03-05T13:16:41.081Z,10.54
2023-03-05T13:19:07.721Z,10.50
2023-03-05T13:21:34.391Z,10.57
2023-03-05T13:24:00.807Z,10.59
2023-03-05T13:26:27.215Z,10.59
2023-03-05T13:28:53.604Z,10.42
2023-03-05T13:31:20.149Z,10.52
2023-03-05T13:33:46.583Z,10.46
2023-03-05T13:36:13.163Z,10.51
2023-03-05T13:38:39.576Z,10.57
2023-03-05T13:41:06.006Z,10.62
2023-03-05T13:43:32.413Z,10.33
2023-03-05T13:46:02.057Z,10.36
2023-03-05T13:48:28.564Z,10.47
2023-03-05T13:50:55.077Z,10.45
2023-03-05T13:53:21.839Z,10.47
2023-03-05T13:55:48.324Z,10.26
2023-03-05T13:58:14.700Z,10.41
2023-03-05T14:00:41.236Z,10.56
2023-03-05T14:03:07.634Z,10.54
2023-03-05T14:05:34.032Z,10.73
2023-03-05T14:08:00.457Z,10.77
2023-03-05T14:10:26.958Z,10.80
2023-03-05T14:12:53.438Z,10.81
2023-03-05T14:15:19.869Z,10.73
2023-03-05T14:17:46.976Z,10.89
2023-03-05T14:20:13.414Z,10.94
2023-03-05T14:22:39.862Z,10.80
2023-03-05T14:25:06.270Z,10.47
2023-03-05T14:27:32.738Z,10.68
2023-03-05T14:29:59.258Z,10.58
2023-03-05T14:32:25.706Z,10.64
2023-03-05T14:34:52.085Z,10.66
2023-03-05T14:37:18.723Z,10.50
2023-03-05T14:39:46.514Z,10.73
2023-03-05T14:42:13.193Z,10.61
2023-03-05T14:44:39.643Z,10.48
2023-03-05T14:47:06.112Z,10.51
2023-03-05T14:49:32.621Z,10.80
2023-03-05T14:51:59.305Z,10.81
2023-03-05T14:54:25.885Z,10.79
2023-03-05T14:56:52.315Z,10.89
2023-03-05T14:59:18.734Z,11.01
2023-03-05T15:01:45.197Z,10.98
2023-03-05T15:04:11.860Z,10.96
2023-03-05T15:06:38.252Z,10.99
2023-03-05T15:09:04.695Z,11.24
2023-03-05T15:11:31.117Z,11.29
2023-03-05T15:13:57.725Z,11.57
2023-03-05T15:16:24.380Z,11.65
2023-03-05T15:18:50.936Z,11.53
2023-03-05T15:21:17.436Z,11.74
2023-03-05T15:23:43.892Z,11.86
2023-03-05T15:26:10.298Z,12.04
2023-03-05T15:28:36.817Z,12.05
2023-03-05T15:31:03.281Z,12.15
2023-03-05T15:33:29.748Z,12.26
2023-03-05T15:35:56.192Z,12.34
2023-03-05T15:38:22.670Z,12.00
2023-03-05T15:40:49.103Z,12.43
2023-03-05T15:43:15.549Z,12.42
2023-03-05T15:45:41.958Z,12.68
2023-03-05T15:48:08.467Z,12.77
2023-03-05T15:50:35.041Z,12.78
2023-03-05T15:53:01.830Z,12.93
2023-03-05T15:55:28.237Z,13.03
2023-03-05T15:57:54.656Z,13.08
2023-03-05T16:00:22.092Z,13.02
2023-03-05T16:02:50.134Z,12.97
2023-03-05T16:05:16.643Z,12.96
2023-03-05T16:07:43.240Z,12.74
2023-03-05T16:10:09.717Z,12.39
2023-03-05T16:12:36.270Z,12.01
2023-03-05T16:15:02.903Z,12.00
2023-03-05T16:17:29.531Z,11.73
2023-03-05T16:19:55.992Z,11.67
2023-03-05T16:22:22.686Z,11.66
2023-03-05T16:24:49.466Z,11.57
2023-03-05T16:27:15.972Z,11.42
2023-03-05T16:29:42.721Z,11.27
2023-03-05T16:32:09.817Z,11.28
2023-03-05T16:34:36.513Z,11.26
2023-03-05T16:37:03.286Z,11.20
2023-03-05T16:39:29.698Z,11.09
2023-03-05T16:41:56.110Z,11.06
2023-03-05T16:44:22.618Z,10.89
2023-03-05T16:46:49.324Z,10.95
2023-03-05T16:49:15.834Z,10.88
2023-03-05T16:51:42.503Z,10.89
2023-03-05T16:54:10.161Z,10.88
2023-03-05T16:56:37.086Z,10.84
2023-03-05T16:59:03.564Z,10.75
2023-03-05T17:01:30.072Z,10.68
2023-03-05T17:03:56.529Z,10.60
2023-03-05T17:06:23.072Z,10.58
2023-03-05T17:08:49.603Z,10.54
2023-03-05T17:11:16.063Z,10.51
2023-03-05T17:13:42.701Z,10.52
2023-03-05T17:16:09.231Z,10.47
2023-03-05T17:18:35.644Z,10.36
2023-03-05T17:21:02.402Z,10.22
2023-03-05T17:23:28.895Z,10.19
2023-03-05T17:25:55.309Z,10.16
2023-03-05T17:28:21.693Z,10.19
2023-03-05T17:30:48.110Z,10.13
2023-03-05T17:33:14.504Z,10.12
2023-03-05T17:35:40.961Z,10.06
2023-03-05T17:38:07.483Z,10.02
2023-03-05T17:40:33.997Z,10.02
2023-03-05T17:43:02.467Z,10.08
2023-03-05T17:45:28.945Z,10.04
2023-03-05T17:47:56.289Z,10.05
2023-03-05T17:50:24.270Z,9.96
2023-03-05T17:52:50.742Z,9.92
2023-03-05T17:55:17.168Z,9.93
2023-03-05T17:57:43.818Z,9.87
2023-03-05T18:00:10.242Z,9.81
2023-03-05T18:02:36.648Z,9.83
2023-03-05T18:05:04.220Z,9.89
2023-03-05T18:07:30.868Z,9.86
2023-03-05T18:09:57.636Z,9.78
2023-03-05T18:12:24.398Z,9.73
2023-03-05T18:14:50.837Z,9.70
2023-03-05T18:17:17.320Z,9.75
2023-03-05T18:19:43.873Z,9.51
2023-03-05T18:22:10.337Z,9.59
2023-03-05T18:24:36.757Z,9.14
2023-03-05T18:27:03.258Z,9.48
2023-03-05T18:29:29.738Z,9.53
2023-03-05T18:31:56.314Z,9.61
2023-03-05T18:34:22.898Z,9.63
2023-03-05T18:36:49.403Z,9.67
2023-03-05T18:39:15.897Z,9.62
2023-03-05T18:41:44.650Z,9.72
2023-03-05T18:44:11.587Z,9.62
2023-03-05T18:46:38.494Z,9.60
2023-03-05T18:49:05.163Z,9.58
2023-03-05T18:51:32.033Z,9.48
2023-03-05T18:53:58.877Z,9.42
2023-03-05T18:56:25.464Z,9.46
2023-03-05T18:58:52.008Z,9.46
2023-03-05T19:01:18.461Z,9.44
2023-03-05T19:03:45.150Z,9.46
2023-03-05T19:06:13.269Z,9.49
2023-03-05T19:08:39.859Z,9.41
2023-03-05T19:11:06.266Z,9.08
2023-03-05T19:13:32.830Z,8.80
2023-03-05T19:15:59.510Z,8.62
2023-03-05T19:18:26.003Z,8.40
2023-03-05T19:20:52.577Z,8.47
2023-03-05T19:23:19.250Z,8.68
2023-03-05T19:25:45.790Z,8.86
2023-03-05T19:28:14.219Z,8.68
2023-03-05T19:30:40.701Z,8.45
2023-03-05T19:33:07.338Z,8.25
2023-03-05T19:35:33.950Z,8.01
2023-03-05T19:38:00.556Z,8.01
2023-03-05T19:40:27.141Z,7.93
2023-03-05T19:42:56.662Z,8.12
2023-03-05T19:45:23.388Z,8.34
2023-03-05T19:47:50.038Z,8.55
2023-03-05T19:50:21.752Z,8.20
2023-03-05T19:52:48.214Z,8.27
2023-03-05T19:55:16.986Z,8.11
2023-03-05T19:57:43.491Z,8.36
2023-03-05T20:00:10.287Z,8.40
2023-03-05T20:02:36.883Z,8.05
2023-03-05T20:05:03.563Z,7.91
2023-03-05T20:07:30.245Z,7.80
2023-03-05T20:09:56.726Z,7.80
2023-03-05T20:12:23.497Z,8.13
2023-03-05T20:14:50.059Z,8.36
2023-03-05T20:17:19.574Z,7.96
2023-03-05T20:19:46.103Z,8.15
2023-03-05T20:22:12.686Z,8.11
2023-03-05T20:24:39.188Z,7.81
2023-03-05T20:27:05.755Z,7.74
2023-03-05T20:29:32.293Z,7.72
2023-03-05T20:32:01.830Z,7.96
2023-03-05T20:34:28.303Z,7.67
2023-03-05T20:36:54.837Z,7.48
2023-03-05T20:39:21.334Z,7.44
2023-03-05T20:41:59.511Z,7.59
2023-03-05T20:44:29.106Z,7.53
2023-03-05T20:46:57.250Z,7.60
2023-03-05T20:49:26.704Z,7.66
2023-03-05T20:51:55.346Z,7.70
2023-03-05T20:54:22.084Z,7.93
2023-03-05T20:56:48.764Z,8.00
2023-03-05T20:59:15.558Z,7.39
2023-03-05T21:01:42.470Z,7.26
2023-03-05T21:04:09.170Z,7.25
2023-03-05T21:06:36.325Z,7.13
2023-03-05T21:09:02.946Z,7.00
2023-03-05T21:11:29.724Z,6.91
2023-03-05T21:13:56.382Z,6.88
2023-03-05T21:16:23.443Z,6.88
2023-03-05T21:18:50.124Z,7.08
2023-03-05T21:21:16.545Z,7.30
2023-03-05T21:23:43.227Z,7.53
2023-03-05T21:26:10.027Z,7.59
2023-03-05T21:28:36.494Z,7.16
2023-03-05T21:31:05.607Z,7.18
2023-03-05T21:33:32.213Z,6.73
2023-03-05T21:35:58.967Z,6.58
2023-03-05T21:38:25.411Z,6.57
2023-03-05T21:40:52.486Z,6.38
2023-03-05T21:43:19.560Z,6.30
2023-03-05T21:45:46.131Z,6.27
2023-03-05T21:48:13.131Z,6.43
2023-03-05T21:50:39.902Z,6.48
2023-03-05T21:53:06.908Z,6.71
2023-03-05T21:55:33.650Z,6.62
2023-03-05T21:58:00.278Z,6.49
2023-03-05T22:00:26.729Z,6.22
2023-03-05T22:02:56.181Z,5.94
2023-03-05T22:05:23.150Z,5.77
2023-03-05T22:07:49.757Z,5.66
2023-03-05T22:10:16.521Z,5.77
2023-03-05T22:12:43.050Z,5.84
2023-03-05T22:15:09.525Z,5.91
2023-03-05T22:17:37.900Z,5.84
2023-03-05T22:20:04.410Z,5.85
2023-03-05T22:22:31.042Z,6.03
2023-03-05T22:24:57.611Z,6.43
2023-03-05T22:27:29.069Z,6.82
2023-03-05T22:29:55.763Z,6.70
2023-03-05T22:32:22.263Z,6.58
2023-03-05T22:34:48.759Z,6.71
2023-03-05T22:37:15.793Z,6.74
2023-03-05T22:39:42.252Z,6.37
2023-03-05T22:42:08.685Z,6.09
2023-03-05T22:44:41.625Z,6.18
2023-03-05T22:47:08.090Z,6.08
2023-03-05T22:49:34.858Z,6.03
2023-03-05T22:52:01.573Z,5.82
2023-03-05T22:54:28.397Z,5.69
2023-03-05T22:56:55.110Z,5.87
2023-03-05T22:59:21.776Z,5.62
2023-03-05T23:01:48.508Z,5.61
2023-03-05T23:04:16.205Z,5.33
2023-03-05T23:06:43.363Z,5.23
2023-03-05T23:09:10.147Z,5.52
2023-03-05T23:11:36.773Z,5.70
2023-03-05T23:14:03.466Z,5.74
2023-03-05T23:16:29.994Z,5.32
2023-03-05T23:18:56.754Z,5.29
2023-03-05T23:21:24.090Z,5.62
2023-03-05T23:23:50.958Z,5.80
2023-03-05T23:26:17.999Z,5.73
2023-03-05T23:28:44.816Z,6.01
2023-03-05T23:31:11.512Z,6.16
2023-03-05T23:33:38.091Z,6.31
2023-03-05T23:36:04.732Z,6.37
2023-03-05T23:38:31.154Z,6.53
2023-03-05T23:41:00.789Z,6.48
2023-03-05T23:43:29.498Z,6.18
2023-03-05T23:45:56.170Z,5.91
2023-03-05T23:48:22.833Z,6.16
2023-03-05T23:50:49.466Z,6.26
2023-03-05T23:53:15.856Z,5.89
2023-03-05T23:55:42.256Z,5.51
2023-03-05T23:58:10.817Z,5.36
